sensor_id;sensor_type;location;lat;lon;timestamp;pressure;altitude;pressure_sealevel;temperature;humidity
42859;BME280;28505;56.970;40.998;2022-08-19T00:03:41;100987.38;;;17.32;100.00
42859;BME280;28505;56.970;40.998;2022-08-19T00:09:02;101030.28;;;17.49;100.00
42859;BME280;28505;56.970;40.998;2022-08-19T00:14:28;101034.13;;;17.48;100.00
42859;BME280;28505;56.970;40.998;2022-08-19T00:19:53;101036.63;;;17.36;100.00
42859;BME280;28505;56.970;40.998;2022-08-19T00:25:15;101044.06;;;17.44;100.00
42859;BME280;28505;56.970;40.998;2022-08-19T00:30:50;101045.47;;;17.41;100.00
42859;BME280;28505;56.970;40.998;2022-08-19T00:36:13;101037.88;;;17.29;100.00
42859;BME280;28505;56.970;40.998;2022-08-19T00:41:35;101009.53;;;17.08;100.00
42859;BME280;28505;56.970;40.998;2022-08-19T00:46:58;101051.03;;;17.27;100.00
42859;BME280;28505;56.970;40.998;2022-08-19T00:52:26;101055.16;;;17.25;100.00
42859;BME280;28505;56.970;40.998;2022-08-19T00:57:52;101063.28;;;17.16;100.00
42859;BME280;28505;56.970;40.998;2022-08-19T01:03:19;101058.59;;;17.08;100.00
42859;BME280;28505;56.970;40.998;2022-08-19T01:08:41;101031.97;;;16.82;100.00
42859;BME280;28505;56.970;40.998;2022-08-19T01:14:04;101017.56;;;16.68;100.00
42859;BME280;28505;56.970;40.998;2022-08-19T01:19:37;101028.53;;;16.77;100.00
42859;BME280;28505;56.970;40.998;2022-08-19T01:25:06;101011.94;;;16.65;100.00
42859;BME280;28505;56.970;40.998;2022-08-19T01:30:35;101003.50;;;16.52;100.00
42859;BME280;28505;56.970;40.998;2022-08-19T01:36:08;101063.66;;;16.78;100.00
42859;BME280;28505;56.970;40.998;2022-08-19T01:41:31;101095.34;;;16.97;100.00
42859;BME280;28505;56.970;40.998;2022-08-19T01:46:52;101052.34;;;16.71;100.00
42859;BME280;28505;56.970;40.998;2022-08-19T01:52:14;101102.41;;;16.98;100.00
42859;BME280;28505;56.970;40.998;2022-08-19T01:57:38;101101.41;;;16.94;100.00
42859;BME280;28505;56.970;40.998;2022-08-19T02:03:01;101104.13;;;16.94;100.00
42859;BME280;28505;56.970;40.998;2022-08-19T02:08:23;101039.31;;;16.46;100.00
42859;BME280;28505;56.970;40.998;2022-08-19T02:13:45;101042.63;;;16.43;100.00
42859;BME280;28505;56.970;40.998;2022-08-19T02:19:08;101105.56;;;16.91;100.00
42859;BME280;28505;56.970;40.998;2022-08-19T02:24:30;101104.44;;;16.92;100.00
42859;BME280;28505;56.970;40.998;2022-08-19T02:29:52;101111.31;;;16.90;100.00
42859;BME280;28505;56.970;40.998;2022-08-19T02:35:15;101109.53;;;16.85;100.00
42859;BME280;28505;56.970;40.998;2022-08-19T02:40:39;101094.78;;;16.72;100.00
42859;BME280;28505;56.970;40.998;2022-08-19T02:46:10;101122.38;;;16.93;100.00
42859;BME280;28505;56.970;40.998;2022-08-19T02:51:42;101119.84;;;16.97;100.00
42859;BME280;28505;56.970;40.998;2022-08-19T02:57:05;101120.47;;;16.94;100.00
42859;BME280;28505;56.970;40.998;2022-08-19T03:02:27;101134.50;;;17.01;100.00
42859;BME280;28505;56.970;40.998;2022-08-19T03:07:49;101128.53;;;16.99;100.00
42859;BME280;28505;56.970;40.998;2022-08-19T03:13:23;101069.53;;;16.58;100.00
42859;BME280;28505;56.970;40.998;2022-08-19T03:18:46;101106.47;;;16.87;100.00
42859;BME280;28505;56.970;40.998;2022-08-19T03:24:10;101088.78;;;16.75;100.00
42859;BME280;28505;56.970;40.998;2022-08-19T03:29:37;101066.06;;;16.66;100.00
42859;BME280;28505;56.970;40.998;2022-08-19T03:35:04;101137.53;;;17.22;100.00
42859;BME280;28505;56.970;40.998;2022-08-19T03:40:26;101092.50;;;17.02;100.00
42859;BME280;28505;56.970;40.998;2022-08-19T03:45:49;101132.34;;;17.34;100.00
42859;BME280;28505;56.970;40.998;2022-08-19T03:51:26;101136.59;;;17.49;100.00
42859;BME280;28505;56.970;40.998;2022-08-19T03:56:53;101142.81;;;17.63;100.00
42859;BME280;28505;56.970;40.998;2022-08-19T04:02:15;101152.69;;;17.82;100.00
42859;BME280;28505;56.970;40.998;2022-08-19T04:07:37;101157.47;;;17.98;100.00
42859;BME280;28505;56.970;40.998;2022-08-19T04:12:59;101162.03;;;18.12;100.00
42859;BME280;28505;56.970;40.998;2022-08-19T04:18:21;101143.56;;;18.17;100.00
42859;BME280;28505;56.970;40.998;2022-08-19T04:23:43;101164.19;;;18.41;100.00
42859;BME280;28505;56.970;40.998;2022-08-19T04:29:17;101177.28;;;18.61;100.00
42859;BME280;28505;56.970;40.998;2022-08-19T04:34:40;101178.47;;;18.86;100.00
42859;BME280;28505;56.970;40.998;2022-08-19T04:40:24;101182.03;;;19.22;100.00
42859;BME280;28505;56.970;40.998;2022-08-19T04:46:10;101190.25;;;19.48;98.52
42859;BME280;28505;56.970;40.998;2022-08-19T04:51:54;101192.66;;;19.67;96.25
42859;BME280;28505;56.970;40.998;2022-08-19T04:57:16;101201.78;;;19.88;94.95
42859;BME280;28505;56.970;40.998;2022-08-19T05:02:40;101209.09;;;20.22;94.86
42859;BME280;28505;56.970;40.998;2022-08-19T05:08:02;101157.09;;;20.14;91.19
42859;BME280;28505;56.970;40.998;2022-08-19T05:13:25;101209.97;;;20.52;89.95
42859;BME280;28505;56.970;40.998;2022-08-19T05:18:49;101146.09;;;20.31;88.61
42859;BME280;28505;56.970;40.998;2022-08-19T05:24:30;101187.00;;;20.66;86.65
42859;BME280;28505;56.970;40.998;2022-08-19T05:29:53;101165.94;;;20.57;86.11
42859;BME280;28505;56.970;40.998;2022-08-19T05:35:15;101176.88;;;20.87;83.77
42859;BME280;28505;56.970;40.998;2022-08-19T05:40:41;101145.63;;;20.79;83.48
42859;BME280;28505;56.970;40.998;2022-08-19T05:46:04;101205.06;;;21.38;81.65
42859;BME280;28505;56.970;40.998;2022-08-19T05:51:27;101198.47;;;21.51;80.05
42859;BME280;28505;56.970;40.998;2022-08-19T05:56:51;101213.47;;;21.87;77.43
42859;BME280;28505;56.970;40.998;2022-08-19T06:02:13;101211.53;;;22.21;76.53
42859;BME280;28505;56.970;40.998;2022-08-19T06:07:37;101198.00;;;22.53;74.16
42859;BME280;28505;56.970;40.998;2022-08-19T06:13:00;101209.25;;;22.48;71.42
42859;BME280;28505;56.970;40.998;2022-08-19T06:18:22;101210.16;;;22.39;72.04
42859;BME280;28505;56.970;40.998;2022-08-19T06:23:45;101206.59;;;22.76;70.90
42859;BME280;28505;56.970;40.998;2022-08-19T06:29:10;101217.81;;;22.95;69.25
42859;BME280;28505;56.970;40.998;2022-08-19T06:34:43;101220.72;;;23.27;68.33
42859;BME280;28505;56.970;40.998;2022-08-19T06:40:06;101226.00;;;23.32;65.84
42859;BME280;28505;56.970;40.998;2022-08-19T06:45:32;101214.81;;;23.41;64.89
42859;BME280;28505;56.970;40.998;2022-08-19T06:50:59;101224.91;;;23.49;64.70
42859;BME280;28505;56.970;40.998;2022-08-19T06:56:27;101229.44;;;23.57;64.60
42859;BME280;28505;56.970;40.998;2022-08-19T07:01:56;101237.63;;;23.81;63.83
42859;BME280;28505;56.970;40.998;2022-08-19T07:07:19;101238.31;;;24.22;63.43
42859;BME280;28505;56.970;40.998;2022-08-19T07:12:42;101252.66;;;24.44;62.19
42859;BME280;28505;56.970;40.998;2022-08-19T07:18:05;101256.28;;;24.80;60.36
42859;BME280;28505;56.970;40.998;2022-08-19T07:23:32;101215.56;;;24.57;55.93
42859;BME280;28505;56.970;40.998;2022-08-19T07:28:55;101186.66;;;24.51;57.51
42859;BME280;28505;56.970;40.998;2022-08-19T07:34:21;101199.78;;;24.73;56.06
42859;BME280;28505;56.970;40.998;2022-08-19T07:39:44;101243.41;;;25.19;55.96
42859;BME280;28505;56.970;40.998;2022-08-19T07:45:07;101211.09;;;25.04;51.79
42859;BME280;28505;56.970;40.998;2022-08-19T07:50:32;101217.97;;;24.94;51.37
42859;BME280;28505;56.970;40.998;2022-08-19T07:55:55;101185.97;;;24.54;51.84
42859;BME280;28505;56.970;40.998;2022-08-19T08:01:24;101237.91;;;24.87;49.91
42859;BME280;28505;56.970;40.998;2022-08-19T08:06:46;101197.44;;;24.56;49.82
42859;BME280;28505;56.970;40.998;2022-08-19T08:12:31;101230.53;;;24.91;50.48
42859;BME280;28505;56.970;40.998;2022-08-19T08:17:55;101197.91;;;24.77;48.77
42859;BME280;28505;56.970;40.998;2022-08-19T08:23:20;101198.63;;;24.74;47.96
42859;BME280;28505;56.970;40.998;2022-08-19T08:28:47;101185.84;;;24.66;48.59
42859;BME280;28505;56.970;40.998;2022-08-19T08:34:11;101172.56;;;24.72;50.08
42859;BME280;28505;56.970;40.998;2022-08-19T08:39:36;101214.63;;;24.85;44.84
42859;BME280;28505;56.970;40.998;2022-08-19T08:45:00;101249.59;;;24.81;45.29
42859;BME280;28505;56.970;40.998;2022-08-19T08:50:33;101241.88;;;24.70;45.15
42859;BME280;28505;56.970;40.998;2022-08-19T08:56:03;101194.94;;;24.51;42.21
42859;BME280;28505;56.970;40.998;2022-08-19T09:01:29;101183.56;;;24.52;44.19
42859;BME280;28505;56.970;40.998;2022-08-19T09:06:57;101213.19;;;25.10;46.58
42859;BME280;28505;56.970;40.998;2022-08-19T09:12:57;101234.34;;;25.38;45.85
42859;BME280;28505;56.970;40.998;2022-08-19T09:18:44;101228.22;;;25.48;44.46
42859;BME280;28505;56.970;40.998;2022-08-19T09:24:08;101241.78;;;25.57;45.12
42859;BME280;28505;56.970;40.998;2022-08-19T09:29:30;101250.38;;;25.71;44.14
42859;BME280;28505;56.970;40.998;2022-08-19T09:34:52;101240.19;;;25.75;44.17
42859;BME280;28505;56.970;40.998;2022-08-19T09:40:20;101246.25;;;25.81;44.19
42859;BME280;28505;56.970;40.998;2022-08-19T09:45:44;101258.22;;;25.88;44.43
42859;BME280;28505;56.970;40.998;2022-08-19T09:51:10;101241.03;;;25.79;42.83
42859;BME280;28505;56.970;40.998;2022-08-19T09:56:32;101232.44;;;25.81;40.85
42859;BME280;28505;56.970;40.998;2022-08-19T10:01:55;101248.75;;;25.70;40.92
42859;BME280;28505;56.970;40.998;2022-08-19T10:07:24;101195.75;;;25.22;40.45
42859;BME280;28505;56.970;40.998;2022-08-19T10:13:00;101208.84;;;25.25;39.82
42859;BME280;28505;56.970;40.998;2022-08-19T10:18:23;101218.78;;;25.30;38.48
42859;BME280;28505;56.970;40.998;2022-08-19T10:23:49;101240.63;;;25.19;39.73
42859;BME280;28505;56.970;40.998;2022-08-19T10:29:13;101205.81;;;25.14;40.36
42859;BME280;28505;56.970;40.998;2022-08-19T10:34:53;101256.97;;;25.47;39.40
42859;BME280;28505;56.970;40.998;2022-08-19T10:40:17;101219.28;;;25.16;39.35
42859;BME280;28505;56.970;40.998;2022-08-19T10:45:39;101233.88;;;25.36;40.82
42859;BME280;28505;56.970;40.998;2022-08-19T10:51:16;101226.19;;;25.45;38.67
42859;BME280;28505;56.970;40.998;2022-08-19T10:57:07;101200.97;;;25.46;40.27
42859;BME280;28505;56.970;40.998;2022-08-19T11:02:30;101211.06;;;25.58;41.09
42859;BME280;28505;56.970;40.998;2022-08-19T11:07:54;101239.50;;;26.01;40.22
42859;BME280;28505;56.970;40.998;2022-08-19T11:13:18;101255.81;;;26.06;39.22
42859;BME280;28505;56.970;40.998;2022-08-19T11:18:42;101243.00;;;25.98;39.30
42859;BME280;28505;56.970;40.998;2022-08-19T11:24:10;101259.16;;;25.96;37.55
42859;BME280;28505;56.970;40.998;2022-08-19T11:29:33;101239.94;;;25.80;39.21
42859;BME280;28505;56.970;40.998;2022-08-19T11:34:55;101255.72;;;26.03;37.00
42859;BME280;28505;56.970;40.998;2022-08-19T11:40:18;101250.28;;;26.06;37.70
42859;BME280;28505;56.970;40.998;2022-08-19T11:45:40;101255.41;;;26.08;37.11
42859;BME280;28505;56.970;40.998;2022-08-19T11:51:09;101258.00;;;25.97;37.10
42859;BME280;28505;56.970;40.998;2022-08-19T11:56:32;101259.34;;;25.84;35.57
42859;BME280;28505;56.970;40.998;2022-08-19T12:01:53;101266.06;;;25.86;37.30
42859;BME280;28505;56.970;40.998;2022-08-19T12:07:17;101239.69;;;25.69;37.82
42859;BME280;28505;56.970;40.998;2022-08-19T12:12:39;101229.19;;;25.79;36.62
42859;BME280;28505;56.970;40.998;2022-08-19T12:18:08;101249.88;;;25.85;36.10
42859;BME280;28505;56.970;40.998;2022-08-19T12:23:36;101183.53;;;25.42;37.12
42859;BME280;28505;56.970;40.998;2022-08-19T12:29:00;101189.06;;;25.42;37.94
42859;BME280;28505;56.970;40.998;2022-08-19T12:34:25;101222.69;;;25.67;37.95
42859;BME280;28505;56.970;40.998;2022-08-19T12:39:53;101205.75;;;25.69;38.31
42859;BME280;28505;56.970;40.998;2022-08-19T12:45:18;101167.47;;;25.48;38.10
42859;BME280;28505;56.970;40.998;2022-08-19T12:50:42;101183.81;;;25.57;37.95
42859;BME280;28505;56.970;40.998;2022-08-19T12:56:08;101191.41;;;25.83;39.33
42859;BME280;28505;56.970;40.998;2022-08-19T13:01:33;101219.38;;;26.01;38.76
42859;BME280;28505;56.970;40.998;2022-08-19T13:07:14;101222.69;;;25.87;38.17
42859;BME280;28505;56.970;40.998;2022-08-19T13:12:51;101201.00;;;25.69;38.48
42859;BME280;28505;56.970;40.998;2022-08-19T13:18:13;101156.31;;;25.41;38.31
42859;BME280;28505;56.970;40.998;2022-08-19T13:23:36;101192.38;;;25.71;39.11
42859;BME280;28505;56.970;40.998;2022-08-19T13:28:58;101177.06;;;25.54;36.97
42859;BME280;28505;56.970;40.998;2022-08-19T13:34:38;101189.50;;;25.44;35.29
42859;BME280;28505;56.970;40.998;2022-08-19T13:40:00;101171.41;;;25.28;35.61
42859;BME280;28505;56.970;40.998;2022-08-19T13:45:24;101201.22;;;25.38;35.78
42859;BME280;28505;56.970;40.998;2022-08-19T13:50:47;101198.13;;;25.23;36.35
42859;BME280;28505;56.970;40.998;2022-08-19T13:56:15;101207.28;;;25.28;35.15
42859;BME280;28505;56.970;40.998;2022-08-19T14:01:37;101213.03;;;25.19;35.43
42859;BME280;28505;56.970;40.998;2022-08-19T14:06:59;101175.13;;;24.81;36.08
42859;BME280;28505;56.970;40.998;2022-08-19T14:12:23;101166.97;;;24.68;34.91
42859;BME280;28505;56.970;40.998;2022-08-19T14:17:49;101228.75;;;24.99;35.92
42859;BME280;28505;56.970;40.998;2022-08-19T14:23:13;101192.94;;;24.67;36.02
42859;BME280;28505;56.970;40.998;2022-08-19T14:28:36;101215.84;;;24.87;35.25
42859;BME280;28505;56.970;40.998;2022-08-19T14:33:58;101191.00;;;24.52;36.42
42859;BME280;28505;56.970;40.998;2022-08-19T14:39:20;101178.66;;;24.30;36.83
42859;BME280;28505;56.970;40.998;2022-08-19T14:44:43;101212.91;;;24.45;37.46
42859;BME280;28505;56.970;40.998;2022-08-19T14:50:10;101249.38;;;24.54;37.09
42859;BME280;28505;56.970;40.998;2022-08-19T14:55:47;101205.16;;;24.19;37.41
42859;BME280;28505;56.970;40.998;2022-08-19T15:01:10;101248.09;;;24.36;37.06
42859;BME280;28505;56.970;40.998;2022-08-19T15:06:46;101206.81;;;23.92;37.67
42859;BME280;28505;56.970;40.998;2022-08-19T15:12:09;101219.53;;;23.96;37.88
42859;BME280;28505;56.970;40.998;2022-08-19T15:17:43;101215.34;;;23.87;38.11
42859;BME280;28505;56.970;40.998;2022-08-19T15:23:07;101216.91;;;23.72;38.25
42859;BME280;28505;56.970;40.998;2022-08-19T15:28:29;101230.09;;;23.66;38.36
42859;BME280;28505;56.970;40.998;2022-08-19T15:33:55;101267.28;;;23.72;39.13
42859;BME280;28505;56.970;40.998;2022-08-19T15:39:22;101216.22;;;23.34;39.26
42859;BME280;28505;56.970;40.998;2022-08-19T15:44:46;101222.59;;;23.23;39.93
42859;BME280;28505;56.970;40.998;2022-08-19T15:50:16;101216.53;;;23.05;40.29
42859;BME280;28505;56.970;40.998;2022-08-19T15:55:44;101254.91;;;23.13;40.78
42859;BME280;28505;56.970;40.998;2022-08-19T16:01:07;101246.69;;;22.89;40.95
42859;BME280;28505;56.970;40.998;2022-08-19T16:06:50;101274.75;;;22.95;41.60
42859;BME280;28505;56.970;40.998;2022-08-19T16:12:13;101291.13;;;22.79;41.81
42859;BME280;28505;56.970;40.998;2022-08-19T16:17:38;101291.03;;;22.63;42.16
42859;BME280;28505;56.970;40.998;2022-08-19T16:23:18;101293.03;;;22.41;42.41
42859;BME280;28505;56.970;40.998;2022-08-19T16:28:45;101282.69;;;22.26;43.01
42859;BME280;28505;56.970;40.998;2022-08-19T16:34:13;101269.75;;;21.93;43.06
42859;BME280;28505;56.970;40.998;2022-08-19T16:39:40;101293.34;;;21.94;43.43
42859;BME280;28505;56.970;40.998;2022-08-19T16:45:05;101298.31;;;21.80;43.81
42859;BME280;28505;56.970;40.998;2022-08-19T16:50:32;101305.56;;;21.64;43.90
42859;BME280;28505;56.970;40.998;2022-08-19T16:56:10;101316.00;;;21.49;44.13
42859;BME280;28505;56.970;40.998;2022-08-19T17:01:33;101309.66;;;21.28;44.23
42859;BME280;28505;56.970;40.998;2022-08-19T17:06:58;101327.31;;;21.18;44.44
42859;BME280;28505;56.970;40.998;2022-08-19T17:12:22;101312.13;;;20.91;44.91
42859;BME280;28505;56.970;40.998;2022-08-19T17:17:52;101324.28;;;20.81;44.88
42859;BME280;28505;56.970;40.998;2022-08-19T17:23:21;101334.75;;;20.79;44.90
42859;BME280;28505;56.970;40.998;2022-08-19T17:29:06;101347.22;;;20.68;45.26
42859;BME280;28505;56.970;40.998;2022-08-19T17:34:28;101350.28;;;20.49;45.48
42859;BME280;28505;56.970;40.998;2022-08-19T17:39:52;101321.66;;;20.21;45.84
42859;BME280;28505;56.970;40.998;2022-08-19T17:45:15;101352.94;;;20.20;46.31
42859;BME280;28505;56.970;40.998;2022-08-19T17:50:38;101338.28;;;19.81;46.48
42859;BME280;28505;56.970;40.998;2022-08-19T17:56:01;101336.16;;;19.60;47.17
42859;BME280;28505;56.970;40.998;2022-08-19T18:01:22;101353.84;;;19.54;47.57
42859;BME280;28505;56.970;40.998;2022-08-19T18:06:48;101369.78;;;19.44;48.32
42859;BME280;28505;56.970;40.998;2022-08-19T18:12:14;101375.34;;;19.21;48.49
42859;BME280;28505;56.970;40.998;2022-08-19T18:17:38;101371.56;;;19.00;49.16
42859;BME280;28505;56.970;40.998;2022-08-19T18:23:00;101359.41;;;18.75;49.50
42859;BME280;28505;56.970;40.998;2022-08-19T18:28:42;101380.94;;;18.76;49.87
42859;BME280;28505;56.970;40.998;2022-08-19T18:34:09;101368.59;;;18.56;50.38
42859;BME280;28505;56.970;40.998;2022-08-19T18:39:31;101360.59;;;18.37;50.69
42859;BME280;28505;56.970;40.998;2022-08-19T18:45:12;101353.78;;;18.26;51.30
42859;BME280;28505;56.970;40.998;2022-08-19T18:50:53;101366.69;;;18.12;51.71
42859;BME280;28505;56.970;40.998;2022-08-19T18:56:17;101373.69;;;18.04;52.42
42859;BME280;28505;56.970;40.998;2022-08-19T19:01:43;101354.75;;;17.71;52.54
42859;BME280;28505;56.970;40.998;2022-08-19T19:07:11;101370.94;;;17.68;53.42
42859;BME280;28505;56.970;40.998;2022-08-19T19:12:41;101382.84;;;17.72;53.86
42859;BME280;28505;56.970;40.998;2022-08-19T19:18:04;101374.22;;;17.56;54.52
42859;BME280;28505;56.970;40.998;2022-08-19T19:23:27;101383.31;;;17.38;55.27
42859;BME280;28505;56.970;40.998;2022-08-19T19:28:49;101369.97;;;17.22;55.13
42859;BME280;28505;56.970;40.998;2022-08-19T19:34:13;101395.41;;;17.31;55.31
42859;BME280;28505;56.970;40.998;2022-08-19T19:39:49;101394.03;;;17.20;55.69
42859;BME280;28505;56.970;40.998;2022-08-19T19:45:14;101395.22;;;17.14;56.02
42859;BME280;28505;56.970;40.998;2022-08-19T19:50:37;101378.88;;;17.00;56.42
42859;BME280;28505;56.970;40.998;2022-08-19T19:55:59;101406.81;;;17.06;56.59
42859;BME280;28505;56.970;40.998;2022-08-19T20:01:23;101401.47;;;17.01;56.72
42859;BME280;28505;56.970;40.998;2022-08-19T20:06:46;101373.78;;;16.80;57.09
42859;BME280;28505;56.970;40.998;2022-08-19T20:12:09;101384.41;;;16.81;57.41
42859;BME280;28505;56.970;40.998;2022-08-19T20:17:31;101324.38;;;16.40;57.68
42859;BME280;28505;56.970;40.998;2022-08-19T20:22:54;101355.78;;;16.51;58.02
42859;BME280;28505;56.970;40.998;2022-08-19T20:28:16;101345.94;;;16.36;58.01
42859;BME280;28505;56.970;40.998;2022-08-19T20:33:40;101419.44;;;16.69;58.64
42859;BME280;28505;56.970;40.998;2022-08-19T20:39:04;101376.47;;;16.33;58.93
42859;BME280;28505;56.970;40.998;2022-08-19T20:44:27;101380.00;;;16.34;58.92
42859;BME280;28505;56.970;40.998;2022-08-19T20:49:49;101372.81;;;16.24;59.23
42859;BME280;28505;56.970;40.998;2022-08-19T20:55:12;101359.00;;;16.02;59.78
42859;BME280;28505;56.970;40.998;2022-08-19T21:00:38;101372.09;;;16.00;60.30
42859;BME280;28505;56.970;40.998;2022-08-19T21:06:02;101423.78;;;16.19;60.89
42859;BME280;28505;56.970;40.998;2022-08-19T21:11:25;101427.97;;;16.11;61.87
42859;BME280;28505;56.970;40.998;2022-08-19T21:16:47;101431.94;;;16.00;62.29
42859;BME280;28505;56.970;40.998;2022-08-19T21:22:10;101429.28;;;15.95;62.39
42859;BME280;28505;56.970;40.998;2022-08-19T21:27:32;101423.31;;;15.74;63.26
42859;BME280;28505;56.970;40.998;2022-08-19T21:32:54;101420.72;;;15.63;63.64
42859;BME280;28505;56.970;40.998;2022-08-19T21:38:17;101429.22;;;15.57;64.02
42859;BME280;28505;56.970;40.998;2022-08-19T21:43:39;101434.44;;;15.53;65.57
42859;BME280;28505;56.970;40.998;2022-08-19T21:49:00;101439.09;;;15.48;65.74
42859;BME280;28505;56.970;40.998;2022-08-19T21:54:23;101441.38;;;15.40;66.54
42859;BME280;28505;56.970;40.998;2022-08-19T21:59:44;101440.03;;;15.38;67.32
42859;BME280;28505;56.970;40.998;2022-08-19T22:05:07;101414.97;;;15.17;67.55
42859;BME280;28505;56.970;40.998;2022-08-19T22:10:32;101390.75;;;14.96;67.59
42859;BME280;28505;56.970;40.998;2022-08-19T22:15:54;101428.06;;;15.15;67.96
42859;BME280;28505;56.970;40.998;2022-08-19T22:21:18;101404.47;;;15.10;68.17
42859;BME280;28505;56.970;40.998;2022-08-19T22:27:13;101415.31;;;15.10;68.57
42859;BME280;28505;56.970;40.998;2022-08-19T22:32:50;101438.81;;;15.25;69.23
42859;BME280;28505;56.970;40.998;2022-08-19T22:38:19;101414.53;;;15.10;69.39
42859;BME280;28505;56.970;40.998;2022-08-19T22:43:41;101437.44;;;15.28;69.96
42859;BME280;28505;56.970;40.998;2022-08-19T22:49:04;101404.47;;;15.10;69.64
42859;BME280;28505;56.970;40.998;2022-08-19T22:54:32;101410.22;;;15.04;70.35
42859;BME280;28505;56.970;40.998;2022-08-19T22:59:54;101456.16;;;15.29;71.23
42859;BME280;28505;56.970;40.998;2022-08-19T23:05:26;101481.59;;;15.38;71.71
42859;BME280;28505;56.970;40.998;2022-08-19T23:10:49;101489.44;;;15.40;72.05
42859;BME280;28505;56.970;40.998;2022-08-19T23:16:11;101495.75;;;15.35;72.60
42859;BME280;28505;56.970;40.998;2022-08-19T23:21:35;101465.63;;;15.08;73.02
42859;BME280;28505;56.970;40.998;2022-08-19T23:26:57;101484.00;;;15.16;73.17
42859;BME280;28505;56.970;40.998;2022-08-19T23:32:38;101492.34;;;15.25;73.23
42859;BME280;28505;56.970;40.998;2022-08-19T23:38:02;101493.16;;;15.25;73.48
42859;BME280;28505;56.970;40.998;2022-08-19T23:43:24;101495.91;;;15.20;73.56
42859;BME280;28505;56.970;40.998;2022-08-19T23:48:50;101495.66;;;15.16;73.66
42859;BME280;28505;56.970;40.998;2022-08-19T23:54:11;101480.59;;;15.00;74.58
42859;BME280;28505;56.970;40.998;2022-08-19T23:59:33;101497.00;;;14.90;75.17
